createdAt,value
2016-12-07T00:00:29.168Z,4.23
2016-12-07T00:01:29.181Z,4.26
2016-12-07T00:02:29.299Z,4.31
2016-12-07T00:03:29.307Z,4.31
2016-12-07T00:04:29.209Z,4.31
2016-12-07T00:05:30.562Z,4.28
2016-12-07T00:06:29.230Z,4.32
2016-12-07T00:07:29.266Z,4.31
2016-12-07T00:08:29.250Z,4.34
2016-12-07T00:09:29.261Z,4.31
2016-12-07T00:10:29.282Z,4.3
2016-12-07T00:11:29.283Z,4.3
2016-12-07T00:12:29.488Z,4.28
2016-12-07T00:13:29.302Z,4.34
2016-12-07T00:14:29.346Z,4.26
2016-12-07T00:15:29.509Z,4.31
2016-12-07T00:16:29.332Z,4.35
2016-12-07T00:17:29.370Z,4.32
2016-12-07T00:18:29.355Z,4.17
2016-12-07T00:19:29.370Z,4.3
2016-12-07T00:20:29.376Z,4.31
2016-12-07T00:21:29.386Z,4.22
2016-12-07T00:22:29.498Z,4.32
2016-12-07T00:23:29.504Z,4.24
2016-12-07T00:24:29.533Z,4.23
2016-12-07T00:25:29.640Z,4.23
2016-12-07T00:26:29.557Z,4.32
2016-12-07T00:27:29.566Z,4.2
2016-12-07T00:28:29.579Z,4.3
2016-12-07T00:29:29.470Z,4.23
2016-12-07T00:30:29.624Z,4.17
2016-12-07T00:31:29.635Z,4.19
2016-12-07T00:32:29.509Z,4.2
2016-12-07T00:33:29.514Z,4.23
2016-12-07T00:34:29.548Z,4.2
2016-12-07T00:35:29.860Z,4.13
2016-12-07T00:36:29.558Z,4.16
2016-12-07T00:37:29.558Z,4.23
2016-12-07T00:38:29.569Z,4.16
2016-12-07T00:39:29.579Z,4.24
2016-12-07T00:40:29.591Z,4.22
2016-12-07T00:41:29.598Z,4.2
2016-12-07T00:42:29.611Z,4.2
2016-12-07T00:43:29.623Z,4.28
2016-12-07T00:44:29.635Z,4.22
2016-12-07T00:45:29.641Z,4.19
2016-12-07T00:46:29.656Z,4.22
2016-12-07T00:47:29.663Z,4.2
2016-12-07T00:48:29.672Z,4.2
2016-12-07T00:49:29.800Z,4.14
2016-12-07T00:50:29.695Z,4.28
2016-12-07T00:51:29.706Z,4.26
2016-12-07T00:52:29.714Z,4.24
2016-12-07T00:53:29.727Z,4.19
2016-12-07T00:54:29.736Z,4.13
2016-12-07T00:55:29.748Z,4.2
2016-12-07T00:56:29.761Z,4.22
2016-12-07T00:57:29.769Z,4.23
2016-12-07T00:58:29.784Z,4.23
2016-12-07T00:59:29.793Z,4.19
2016-12-07T01:00:29.808Z,4.23
2016-12-07T01:01:29.806Z,4.08
2016-12-07T01:02:29.819Z,4.26
2016-12-07T01:03:29.827Z,4.13
2016-12-07T01:04:29.844Z,4.23
2016-12-07T01:05:29.849Z,4.2
2016-12-07T01:06:29.863Z,4.17
2016-12-07T01:07:29.870Z,4.12
2016-12-07T01:08:29.886Z,4.16
2016-12-07T01:09:29.897Z,4.14
2016-12-07T01:10:29.905Z,4.22
2016-12-07T01:11:29.915Z,4.1
2016-12-07T01:12:29.927Z,4.17
2016-12-07T01:13:29.935Z,4.17
2016-12-07T01:14:29.955Z,4.14
2016-12-07T01:15:29.959Z,4.19
2016-12-07T01:16:30.079Z,4.14
2016-12-07T01:17:30.089Z,4.16
2016-12-07T01:18:29.991Z,4.19
2016-12-07T01:19:30.005Z,4.14
2016-12-07T01:20:30.009Z,4.16
2016-12-07T01:21:30.044Z,4.16
2016-12-07T01:22:30.032Z,4.12
2016-12-07T01:23:30.047Z,4.08
2016-12-07T01:24:30.052Z,4.16
2016-12-07T01:25:30.063Z,4.05
2016-12-07T01:26:30.074Z,4.05
2016-12-07T01:27:30.094Z,3.99
2016-12-07T01:28:30.097Z,4.12
2016-12-07T01:29:30.112Z,4.08
2016-12-07T01:30:30.117Z,3.99
2016-12-07T01:31:30.128Z,4.08
2016-12-07T01:32:30.136Z,4.08
2016-12-07T01:33:30.156Z,4.08
2016-12-07T01:34:30.273Z,4.05
2016-12-07T01:35:30.171Z,4.05
2016-12-07T01:36:30.186Z,4.02
2016-12-07T01:37:30.190Z,3.99
2016-12-07T01:38:30.204Z,3.98
2016-12-07T01:39:30.335Z,3.98
2016-12-07T01:40:30.270Z,3.95
2016-12-07T01:41:30.235Z,4.01
2016-12-07T01:42:30.467Z,3.99
2016-12-07T01:43:30.255Z,3.98
2016-12-07T01:44:30.269Z,4.01
2016-12-07T01:45:30.274Z,3.94
2016-12-07T01:46:30.289Z,3.94
2016-12-07T01:47:30.405Z,3.88
2016-12-07T01:48:30.305Z,3.94
2016-12-07T01:49:30.313Z,3.94
2016-12-07T01:50:30.357Z,3.86
2016-12-07T01:51:30.331Z,3.87
2016-12-07T01:52:30.342Z,3.92
2016-12-07T01:53:30.355Z,3.86
2016-12-07T01:54:30.367Z,3.88
2016-12-07T01:55:30.371Z,3.81
2016-12-07T01:56:30.499Z,3.86
2016-12-07T01:57:30.393Z,3.84
2016-12-07T01:58:30.405Z,3.87
2016-12-07T01:59:30.530Z,3.84
2016-12-07T02:00:30.428Z,3.87
2016-12-07T02:01:30.549Z,3.87
2016-12-07T02:02:30.448Z,3.87
2016-12-07T02:03:30.568Z,3.84
2016-12-07T02:04:30.468Z,3.92
2016-12-07T02:05:30.593Z,3.96
2016-12-07T02:06:30.484Z,3.84
2016-12-07T02:07:30.500Z,3.95
2016-12-07T02:08:30.508Z,3.84
2016-12-07T02:09:30.528Z,3.78
2016-12-07T02:10:30.534Z,3.77
2016-12-07T02:11:30.543Z,3.81
2016-12-07T02:12:30.575Z,3.7
2016-12-07T02:13:30.560Z,3.78
2016-12-07T02:14:30.712Z,3.77
2016-12-07T02:15:30.694Z,3.77
2016-12-07T02:16:30.599Z,3.81
2016-12-07T02:17:30.606Z,3.8
2016-12-07T02:18:30.614Z,3.81
2016-12-07T02:19:30.737Z,3.77
2016-12-07T02:20:30.631Z,3.84
2016-12-07T02:21:30.648Z,3.8
2016-12-07T02:22:30.774Z,3.69
2016-12-07T02:23:30.669Z,3.78
2016-12-07T02:24:30.789Z,3.8
2016-12-07T02:25:30.683Z,3.77
2016-12-07T02:26:30.690Z,3.7
2016-12-07T02:27:30.737Z,3.74
2016-12-07T02:28:30.714Z,3.74
2016-12-07T02:29:31.169Z,3.8
2016-12-07T02:30:30.737Z,3.78
2016-12-07T02:31:30.947Z,3.76
2016-12-07T02:32:30.754Z,3.7
2016-12-07T02:33:30.770Z,3.73
2016-12-07T02:34:30.773Z,3.76
2016-12-07T02:35:30.790Z,3.73
2016-12-07T02:36:30.796Z,3.74
2016-12-07T02:37:30.808Z,3.68
2016-12-07T02:38:30.823Z,3.68
2016-12-07T02:39:30.829Z,3.68
2016-12-07T02:40:30.837Z,3.62
2016-12-07T02:41:30.846Z,3.68
2016-12-07T02:42:30.862Z,3.68
2016-12-07T02:43:30.867Z,3.63
2016-12-07T02:44:31.023Z,3.68
2016-12-07T02:45:30.892Z,3.65
2016-12-07T02:46:30.895Z,3.73
2016-12-07T02:47:30.909Z,3.69
2016-12-07T02:48:31.236Z,3.69
2016-12-07T02:49:30.927Z,3.69
2016-12-07T02:50:30.936Z,3.63
2016-12-07T02:51:30.951Z,3.65
2016-12-07T02:52:30.960Z,3.53
2016-12-07T02:53:30.975Z,3.63
2016-12-07T02:54:30.978Z,3.63
2016-12-07T02:55:31.104Z,3.53
2016-12-07T02:56:31.111Z,3.5
2016-12-07T02:57:31.009Z,3.62
2016-12-07T02:58:31.021Z,3.63
2016-12-07T02:59:31.037Z,3.68
2016-12-07T03:00:31.041Z,3.53
2016-12-07T03:01:31.052Z,3.6
2016-12-07T03:02:31.059Z,3.5
2016-12-07T03:03:31.070Z,3.58
2016-12-07T03:04:31.085Z,3.56
2016-12-07T03:05:31.088Z,3.51
2016-12-07T03:06:31.099Z,3.56
2016-12-07T03:07:31.209Z,3.55
2016-12-07T03:08:31.118Z,3.5
2016-12-07T03:09:31.136Z,3.48
2016-12-07T03:10:31.143Z,3.51
2016-12-07T03:11:31.153Z,3.59
2016-12-07T03:12:31.162Z,3.55
2016-12-07T03:13:31.172Z,3.48
2016-12-07T03:14:31.209Z,3.45
2016-12-07T03:15:31.195Z,3.55
2016-12-07T03:16:31.206Z,3.51
2016-12-07T03:17:31.220Z,3.51
2016-12-07T03:18:31.223Z,3.53
2016-12-07T03:19:31.236Z,3.47
2016-12-07T03:20:31.249Z,3.47
2016-12-07T03:21:31.251Z,3.37
2016-12-07T03:22:31.293Z,3.36
2016-12-07T03:23:31.269Z,3.47
2016-12-07T03:24:31.291Z,3.44
2016-12-07T03:25:31.297Z,3.48
2016-12-07T03:26:31.334Z,3.48
2016-12-07T03:27:31.316Z,3.42
2016-12-07T03:28:31.327Z,3.5
2016-12-07T03:29:31.329Z,3.48
2016-12-07T03:30:31.348Z,3.44
2016-12-07T03:31:31.359Z,3.45
2016-12-07T03:32:31.541Z,3.42
2016-12-07T03:33:31.511Z,3.4
2016-12-07T03:34:31.522Z,3.37
2016-12-07T03:35:31.594Z,3.5
2016-12-07T03:36:31.515Z,3.4
2016-12-07T03:37:31.525Z,3.42
2016-12-07T03:38:31.550Z,3.42
2016-12-07T03:39:31.555Z,3.42
2016-12-07T03:40:31.565Z,3.26
2016-12-07T03:41:31.460Z,3.34
2016-12-07T03:42:31.461Z,3.29
2016-12-07T03:43:31.547Z,3.32
2016-12-07T03:44:31.485Z,3.42
2016-12-07T03:45:31.495Z,3.32
2016-12-07T03:46:31.501Z,3.28
2016-12-07T03:47:31.522Z,3.37
2016-12-07T03:48:31.528Z,3.29
2016-12-07T03:49:31.538Z,3.34
2016-12-07T03:50:31.542Z,3.28
2016-12-07T03:51:31.558Z,3.29
2016-12-07T03:52:31.557Z,3.34
2016-12-07T03:53:31.584Z,3.34
2016-12-07T03:54:31.579Z,3.29
2016-12-07T03:55:31.592Z,3.29
2016-12-07T03:56:31.597Z,3.28
2016-12-07T03:57:31.615Z,3.32
2016-12-07T03:58:31.628Z,3.22
2016-12-07T03:59:31.630Z,3.25
2016-12-07T04:00:31.635Z,3.22
2016-12-07T04:01:31.650Z,3.31
2016-12-07T04:02:31.664Z,3.28
2016-12-07T04:03:31.672Z,3.29
2016-12-07T04:04:31.679Z,3.29
2016-12-07T04:05:31.692Z,3.28
2016-12-07T04:06:31.699Z,3.25
2016-12-07T04:07:31.719Z,3.28
2016-12-07T04:08:31.724Z,3.29
2016-12-07T04:09:31.735Z,3.23
2016-12-07T04:10:31.745Z,3.28
2016-12-07T04:11:31.745Z,3.29
2016-12-07T04:12:31.759Z,3.23
2016-12-07T04:13:31.767Z,3.32
2016-12-07T04:14:31.790Z,3.25
2016-12-07T04:15:32.204Z,3.26
2016-12-07T04:16:31.811Z,3.23
2016-12-07T04:17:31.811Z,3.19
2016-12-07T04:18:31.814Z,3.23
2016-12-07T04:19:31.833Z,3.25
2016-12-07T04:20:31.839Z,3.23
2016-12-07T04:21:31.846Z,3.25
2016-12-07T04:22:31.927Z,3.25
2016-12-07T04:23:31.862Z,3.26
2016-12-07T04:24:31.880Z,3.29
2016-12-07T04:25:31.884Z,3.11
2016-12-07T04:26:32.008Z,3.22
2016-12-07T04:27:31.908Z,3.25
2016-12-07T04:28:31.914Z,3.21
2016-12-07T04:29:31.925Z,3.19
2016-12-07T04:30:31.943Z,3.21
2016-12-07T04:31:31.948Z,3.21
2016-12-07T04:32:31.958Z,3.23
2016-12-07T04:33:31.968Z,3.19
2016-12-07T04:34:31.972Z,3.14
2016-12-07T04:35:31.983Z,3.19
2016-12-07T04:36:32.000Z,3.16
2016-12-07T04:37:32.005Z,3.21
2016-12-07T04:38:32.013Z,3.16
2016-12-07T04:39:32.027Z,3.22
2016-12-07T04:40:32.035Z,3.08
2016-12-07T04:41:32.040Z,3.21
2016-12-07T04:42:32.059Z,3.14
2016-12-07T04:43:32.066Z,3.05
2016-12-07T04:44:32.073Z,3.07
2016-12-07T04:45:32.096Z,3.16
2016-12-07T04:46:32.091Z,3.14
2016-12-07T04:47:32.097Z,3.18
2016-12-07T04:48:32.118Z,3.13
2016-12-07T04:49:32.129Z,3.1
2016-12-07T04:50:32.131Z,3.19
2016-12-07T04:51:32.145Z,3.11
2016-12-07T04:52:32.150Z,3.07
2016-12-07T04:53:32.188Z,3.11
2016-12-07T04:54:32.172Z,3.16
2016-12-07T04:55:32.177Z,3.21
2016-12-07T04:56:32.187Z,3.01
2016-12-07T04:57:32.197Z,3.04
2016-12-07T04:58:32.217Z,3.05
2016-12-07T04:59:32.214Z,3.05
2016-12-07T05:00:32.229Z,3.07
2016-12-07T05:01:32.239Z,3.08
2016-12-07T05:02:32.245Z,3.08
2016-12-07T05:03:32.256Z,3.03
2016-12-07T05:04:32.274Z,3.08
2016-12-07T05:05:32.284Z,3.05
2016-12-07T05:06:32.287Z,3.08
2016-12-07T05:07:32.304Z,3.08
2016-12-07T05:08:32.305Z,3.05
2016-12-07T05:09:32.313Z,3.05
2016-12-07T05:10:32.323Z,3.08
2016-12-07T05:11:32.334Z,3.07
2016-12-07T05:12:32.346Z,3.08
2016-12-07T05:13:32.359Z,3.05
2016-12-07T05:14:32.373Z,3.13
2016-12-07T05:15:32.372Z,3.04
2016-12-07T05:16:32.376Z,3.11
2016-12-07T05:17:32.394Z,3.07
2016-12-07T05:18:32.396Z,3.03
2016-12-07T05:19:32.410Z,3.11
2016-12-07T05:20:32.425Z,3.03
2016-12-07T05:21:32.436Z,3.11
2016-12-07T05:22:32.439Z,3.05
2016-12-07T05:23:32.453Z,3.01
2016-12-07T05:24:32.486Z,3.05
2016-12-07T05:25:32.469Z,2.98
2016-12-07T05:26:32.490Z,3.13
2016-12-07T05:27:32.483Z,3.05
2016-12-07T05:28:32.503Z,3.04
2016-12-07T05:29:32.514Z,3.01
2016-12-07T05:30:32.510Z,3.04
2016-12-07T05:31:32.528Z,3.08
2016-12-07T05:32:32.539Z,3.04
2016-12-07T05:33:32.545Z,3
2016-12-07T05:34:32.548Z,3.05
2016-12-07T05:35:32.561Z,2.97
2016-12-07T05:36:32.575Z,3.01
2016-12-07T05:37:32.586Z,3.01
2016-12-07T05:38:32.593Z,3
2016-12-07T05:39:32.612Z,3.01
2016-12-07T05:40:32.609Z,2.97
2016-12-07T05:41:32.655Z,3.01
2016-12-07T05:42:32.635Z,3.01
2016-12-07T05:43:32.646Z,3.03
2016-12-07T05:44:32.644Z,2.95
2016-12-07T05:45:32.651Z,2.97
2016-12-07T05:46:32.672Z,3
2016-12-07T05:47:32.711Z,2.95
2016-12-07T05:48:32.699Z,3.03
2016-12-07T05:49:32.700Z,2.97
2016-12-07T05:50:32.705Z,2.98
2016-12-07T05:51:32.720Z,3.01
2016-12-07T05:52:32.723Z,2.92
2016-12-07T05:53:32.738Z,3
2016-12-07T05:54:32.754Z,3
2016-12-07T05:55:32.758Z,2.89
2016-12-07T05:56:32.761Z,2.89
2016-12-07T05:57:32.772Z,2.97
2016-12-07T05:58:32.792Z,2.97
2016-12-07T05:59:32.796Z,2.8
2016-12-07T06:00:32.809Z,2.89
2016-12-07T06:01:32.815Z,2.85
2016-12-07T06:02:32.831Z,2.79
2016-12-07T06:03:32.825Z,2.85
2016-12-07T06:04:32.840Z,2.87
2016-12-07T06:05:32.850Z,2.87
2016-12-07T06:06:32.862Z,2.87
2016-12-07T06:07:32.872Z,2.87
2016-12-07T06:08:32.880Z,2.83
2016-12-07T06:09:32.891Z,2.85
2016-12-07T06:10:32.896Z,2.87
2016-12-07T06:11:32.913Z,2.86
2016-12-07T06:12:32.917Z,2.83
2016-12-07T06:13:32.930Z,2.82
2016-12-07T06:14:32.932Z,2.77
2016-12-07T06:15:32.943Z,2.75
2016-12-07T06:16:32.963Z,2.8
2016-12-07T06:17:32.962Z,2.8
2016-12-07T06:18:32.971Z,2.8
2016-12-07T06:19:32.977Z,2.74
2016-12-07T06:20:32.989Z,2.8
2016-12-07T06:21:33.004Z,2.75
2016-12-07T06:22:33.007Z,2.77
2016-12-07T06:23:33.023Z,2.75
2016-12-07T06:24:33.025Z,2.74
2016-12-07T06:25:33.057Z,2.77
2016-12-07T06:26:33.053Z,2.75
2016-12-07T06:27:33.057Z,2.74
2016-12-07T06:28:33.068Z,2.72
2016-12-07T06:29:33.071Z,2.71
2016-12-07T06:30:33.086Z,2.71
2016-12-07T06:31:33.093Z,2.72
2016-12-07T06:32:33.133Z,2.69
2016-12-07T06:33:33.122Z,2.67
2016-12-07T06:34:33.120Z,2.61
2016-12-07T06:35:33.135Z,2.65
2016-12-07T06:36:33.137Z,2.64
2016-12-07T06:37:33.150Z,2.64
2016-12-07T06:38:33.162Z,2.6
2016-12-07T06:39:33.172Z,2.72
2016-12-07T06:40:33.172Z,2.64
2016-12-07T06:41:33.187Z,2.61
2016-12-07T06:42:33.200Z,2.65
2016-12-07T06:43:33.199Z,2.65
2016-12-07T06:44:33.213Z,2.67
2016-12-07T06:45:33.223Z,2.67
2016-12-07T06:46:33.228Z,2.62
2016-12-07T06:47:33.246Z,2.62
2016-12-07T06:48:33.252Z,2.64
2016-12-07T06:49:33.260Z,2.64
2016-12-07T06:50:33.275Z,2.61
2016-12-07T06:51:33.278Z,2.54
2016-12-07T06:52:33.284Z,2.54
2016-12-07T06:53:33.303Z,2.61
2016-12-07T06:54:33.309Z,2.57
2016-12-07T06:55:33.309Z,2.6
2016-12-07T06:56:33.332Z,2.61
2016-12-07T06:57:33.337Z,2.6
2016-12-07T06:58:33.343Z,2.62
2016-12-07T06:59:33.356Z,2.61
2016-12-07T07:00:33.373Z,2.62
2016-12-07T07:01:33.379Z,2.5
2016-12-07T07:02:33.720Z,2.56
2016-12-07T07:03:33.387Z,2.51
2016-12-07T07:04:33.404Z,2.47
2016-12-07T07:05:33.413Z,2.53
2016-12-07T07:06:33.414Z,2.54
2016-12-07T07:07:33.433Z,2.5
2016-12-07T07:08:33.438Z,2.6
2016-12-07T07:09:33.442Z,2.53
2016-12-07T07:10:33.459Z,2.6
2016-12-07T07:12:05.538Z,2.51
2016-12-07T07:12:33.471Z,2.57
2016-12-07T07:13:33.485Z,2.6
2016-12-07T07:14:33.490Z,2.57
2016-12-07T07:15:33.533Z,2.64
2016-12-07T07:16:33.517Z,2.44
2016-12-07T07:17:33.527Z,2.54
2016-12-07T07:18:33.532Z,2.56
2016-12-07T07:19:33.533Z,2.53
2016-12-07T07:20:33.543Z,2.53
2016-12-07T07:21:33.555Z,2.57
2016-12-07T07:22:33.560Z,2.6
2016-12-07T07:23:33.580Z,2.57
2016-12-07T07:24:33.589Z,2.56
2016-12-07T07:25:33.589Z,2.61
2016-12-07T07:26:33.611Z,2.57
2016-12-07T07:27:33.615Z,2.57
2016-12-07T07:28:33.624Z,2.61
2016-12-07T07:29:33.636Z,2.56
2016-12-07T07:30:33.640Z,2.6
2016-12-07T07:31:33.649Z,2.67
2016-12-07T07:32:33.787Z,2.6
2016-12-07T07:33:33.677Z,2.68
2016-12-07T07:34:33.675Z,2.61
2016-12-07T07:35:33.685Z,2.68
2016-12-07T07:36:33.693Z,2.65
2016-12-07T07:37:33.728Z,2.68
2016-12-07T07:38:33.711Z,2.69
2016-12-07T07:39:33.724Z,2.67
2016-12-07T07:40:33.730Z,2.67
2016-12-07T07:41:33.732Z,2.6
2016-12-07T07:42:33.744Z,2.65
2016-12-07T07:43:33.751Z,2.65
2016-12-07T07:44:33.769Z,2.62
2016-12-07T07:45:33.772Z,2.67
2016-12-07T07:46:33.778Z,2.61
2016-12-07T07:47:33.791Z,2.68
2016-12-07T07:48:33.806Z,2.64
2016-12-07T07:49:33.815Z,2.71
2016-12-07T07:50:33.822Z,2.71
2016-12-07T07:51:33.832Z,2.74
2016-12-07T07:52:33.834Z,2.74
2016-12-07T07:53:33.857Z,2.79
2016-12-07T07:54:33.862Z,2.74
2016-12-07T07:55:33.868Z,2.82
2016-12-07T07:56:33.874Z,2.89
2016-12-07T07:57:33.892Z,2.82
2016-12-07T07:58:33.897Z,2.87
2016-12-07T07:59:33.912Z,2.86
2016-12-07T08:00:33.917Z,2.89
2016-12-07T08:01:33.919Z,2.87
2016-12-07T08:02:34.141Z,2.89
2016-12-07T08:03:34.054Z,2.86
2016-12-07T08:04:33.950Z,2.83
2016-12-07T08:05:33.992Z,2.86
2016-12-07T08:06:33.980Z,2.87
2016-12-07T08:07:34.185Z,2.86
2016-12-07T08:08:33.996Z,2.9
2016-12-07T08:09:34.061Z,2.93
2016-12-07T08:10:34.029Z,2.87
2016-12-07T08:11:34.012Z,2.98
2016-12-07T08:12:34.113Z,2.97
2016-12-07T08:13:34.144Z,2.93
2016-12-07T08:14:34.054Z,2.98
2016-12-07T08:15:34.111Z,3
2016-12-07T08:16:34.056Z,2.93
2016-12-07T08:17:34.070Z,2.93
2016-12-07T08:18:34.078Z,3
2016-12-07T08:19:34.102Z,3
2016-12-07T08:20:34.106Z,3
2016-12-07T08:21:34.119Z,3.07
2016-12-07T08:22:34.124Z,3.05
2016-12-07T08:23:34.126Z,3.08
2016-12-07T08:24:34.280Z,3.04
2016-12-07T08:25:34.271Z,3.05
2016-12-07T08:26:34.156Z,3.03
2016-12-07T08:27:34.170Z,3.1
2016-12-07T08:28:34.181Z,3.01
2016-12-07T08:29:34.199Z,3.03
2016-12-07T08:30:34.196Z,3.08
2016-12-07T08:31:34.198Z,3.13
2016-12-07T08:32:34.213Z,3.16
2016-12-07T08:33:34.225Z,3.1
2016-12-07T08:34:34.231Z,3.14
2016-12-07T08:35:34.244Z,3.21
2016-12-07T08:36:34.285Z,3.23
2016-12-07T08:37:34.256Z,3.25
2016-12-07T08:38:34.273Z,3.21
2016-12-07T08:39:34.285Z,3.21
2016-12-07T08:40:34.288Z,3.18
2016-12-07T08:41:34.608Z,3.23
2016-12-07T08:42:34.309Z,3.26
2016-12-07T08:43:34.325Z,3.19
2016-12-07T08:44:34.533Z,3.26
2016-12-07T08:45:34.338Z,3.23
2016-12-07T08:46:34.339Z,3.23
2016-12-07T08:47:34.358Z,3.28
2016-12-07T08:48:34.362Z,3.29
2016-12-07T08:49:34.685Z,3.25
2016-12-07T08:50:34.384Z,3.34
2016-12-07T08:51:34.407Z,3.34
2016-12-07T08:52:34.402Z,3.29
2016-12-07T08:53:34.415Z,3.31
2016-12-07T08:54:34.431Z,3.28
2016-12-07T08:55:34.440Z,3.36
2016-12-07T08:56:34.534Z,3.31
2016-12-07T08:57:34.451Z,3.25
2016-12-07T08:58:34.462Z,3.32
2016-12-07T08:59:34.472Z,3.44
2016-12-07T09:00:34.484Z,3.42
2016-12-07T09:01:34.488Z,3.45
2016-12-07T09:02:34.497Z,3.44
2016-12-07T09:03:34.511Z,3.45
2016-12-07T09:04:34.526Z,3.42
2016-12-07T09:05:34.530Z,3.45
2016-12-07T09:06:34.582Z,3.51
2016-12-07T09:07:34.549Z,3.47
2016-12-07T09:08:34.562Z,3.51
2016-12-07T09:09:34.568Z,3.5
2016-12-07T09:10:34.585Z,3.55
2016-12-07T09:11:34.587Z,3.53
2016-12-07T09:12:34.595Z,3.62
2016-12-07T09:13:34.614Z,3.53
2016-12-07T09:14:34.615Z,3.59
2016-12-07T09:15:34.627Z,3.53
2016-12-07T09:16:34.637Z,3.53
2016-12-07T09:17:34.645Z,3.5
2016-12-07T09:18:34.769Z,3.6
2016-12-07T09:19:34.663Z,3.51
2016-12-07T09:20:34.671Z,3.48
2016-12-07T09:21:34.687Z,3.47
2016-12-07T09:22:34.695Z,3.51
2016-12-07T09:23:34.705Z,3.51
2016-12-07T09:24:34.717Z,3.66
2016-12-07T09:25:34.842Z,3.55
2016-12-07T09:26:34.741Z,3.5
2016-12-07T09:27:34.739Z,3.53
2016-12-07T09:28:34.755Z,3.66
2016-12-07T09:29:34.763Z,3.59
2016-12-07T09:30:34.864Z,3.68
2016-12-07T09:31:34.874Z,3.68
2016-12-07T09:32:34.793Z,3.65
2016-12-07T09:33:34.895Z,3.68
2016-12-07T09:34:34.820Z,3.68
2016-12-07T09:35:34.828Z,3.68
2016-12-07T09:36:34.833Z,3.63
2016-12-07T09:37:34.977Z,3.68
2016-12-07T09:38:35.090Z,3.69
2016-12-07T09:39:34.983Z,3.66
2016-12-07T09:40:34.870Z,3.81
2016-12-07T09:41:34.888Z,3.76
2016-12-07T09:42:34.893Z,3.7
2016-12-07T09:43:34.902Z,3.74
2016-12-07T09:44:34.910Z,3.7
2016-12-07T09:45:35.231Z,3.69
2016-12-07T09:46:34.939Z,3.7
2016-12-07T09:47:34.943Z,3.7
2016-12-07T09:48:34.974Z,3.74
2016-12-07T09:49:34.986Z,3.68
2016-12-07T09:50:35.290Z,3.76
2016-12-07T09:51:34.976Z,3.69
2016-12-07T09:52:34.998Z,3.7
2016-12-07T09:53:35.069Z,3.6
2016-12-07T09:54:35.088Z,3.76
2016-12-07T09:55:35.152Z,3.73
2016-12-07T09:56:35.032Z,3.73
2016-12-07T09:57:35.285Z,3.74
2016-12-07T09:58:35.076Z,3.7
2016-12-07T09:59:35.059Z,3.68
2016-12-07T10:00:35.070Z,3.69
2016-12-07T10:01:35.563Z,3.78
2016-12-07T10:02:35.092Z,3.74
2016-12-07T10:03:35.099Z,3.7
2016-12-07T10:04:35.231Z,3.66
2016-12-07T10:05:35.330Z,3.73
2016-12-07T10:06:35.126Z,3.81
2016-12-07T10:07:35.148Z,3.78
2016-12-07T10:08:35.351Z,3.78
2016-12-07T10:09:35.167Z,3.78
2016-12-07T10:10:35.177Z,3.83
2016-12-07T10:11:35.384Z,3.81
2016-12-07T10:12:35.193Z,3.76
2016-12-07T10:13:35.202Z,3.8
2016-12-07T10:14:35.352Z,3.95
2016-12-07T10:15:35.220Z,3.87
2016-12-07T10:16:35.240Z,3.87
2016-12-07T10:17:35.240Z,3.95
2016-12-07T10:18:35.247Z,3.86
2016-12-07T10:19:35.375Z,3.84
2016-12-07T10:20:35.272Z,3.88
2016-12-07T10:21:35.293Z,3.94
2016-12-07T10:22:35.300Z,3.95
2016-12-07T10:23:35.310Z,3.96
2016-12-07T10:24:35.311Z,3.87
2016-12-07T10:25:35.316Z,3.95
2016-12-07T10:26:35.332Z,3.95
2016-12-07T10:27:35.471Z,3.96
2016-12-07T10:28:35.352Z,3.99
2016-12-07T10:29:35.362Z,3.96
2016-12-07T10:30:35.378Z,3.99
2016-12-07T10:31:35.705Z,3.96
2016-12-07T10:32:35.514Z,4.05
2016-12-07T10:33:35.405Z,3.99
2016-12-07T10:34:35.410Z,3.99
2016-12-07T10:35:35.432Z,4.06
2016-12-07T10:36:35.631Z,3.94
2016-12-07T10:37:35.483Z,4.01
2016-12-07T10:38:35.459Z,4.02
2016-12-07T10:39:35.462Z,3.99
2016-12-07T10:40:35.481Z,4.04
2016-12-07T10:41:35.597Z,4.02
2016-12-07T10:42:35.527Z,4.08
2016-12-07T10:43:35.505Z,4.08
2016-12-07T10:44:35.521Z,4.08
2016-12-07T10:45:35.521Z,4.06
2016-12-07T10:46:35.574Z,3.96
2016-12-07T10:47:35.549Z,4.04
2016-12-07T10:48:35.553Z,4.1
2016-12-07T10:49:35.567Z,4.08
2016-12-07T10:50:35.574Z,4.01
2016-12-07T10:51:35.590Z,3.98
2016-12-07T10:52:35.716Z,4.08
2016-12-07T10:53:35.609Z,4.06
2016-12-07T10:54:35.620Z,4.13
2016-12-07T10:55:35.621Z,4.06
2016-12-07T10:56:35.642Z,4.12
2016-12-07T10:57:35.650Z,4.14
2016-12-07T10:58:35.658Z,4.13
2016-12-07T10:59:35.852Z,4.17
2016-12-07T11:00:35.679Z,4.19
2016-12-07T11:01:35.696Z,4.16
2016-12-07T11:02:35.701Z,4.23
2016-12-07T11:03:35.705Z,4.22
2016-12-07T11:04:35.736Z,4.22
2016-12-07T11:05:35.739Z,4.22
2016-12-07T11:06:35.736Z,4.2
2016-12-07T11:07:35.841Z,4.22
2016-12-07T11:08:35.869Z,4.2
2016-12-07T11:09:35.881Z,4.22
2016-12-07T11:10:35.892Z,4.24
2016-12-07T11:11:35.797Z,4.17
2016-12-07T11:12:35.811Z,4.17
2016-12-07T11:13:35.820Z,4.14
2016-12-07T11:14:35.821Z,4.24
2016-12-07T11:15:35.829Z,4.17
2016-12-07T11:16:35.845Z,4.23
2016-12-07T11:17:36.206Z,4.2
2016-12-07T11:18:35.864Z,4.23
2016-12-07T11:19:35.869Z,4.12
2016-12-07T11:20:35.880Z,4.08
2016-12-07T11:21:35.890Z,4.17
2016-12-07T11:22:35.905Z,4.22
2016-12-07T11:23:35.921Z,4.24
2016-12-07T11:24:35.926Z,4.19
2016-12-07T11:25:35.933Z,4.26
2016-12-07T11:26:35.949Z,4.22
2016-12-07T11:27:35.953Z,4.19
2016-12-07T11:28:35.964Z,4.31
2016-12-07T11:29:35.972Z,4.28
2016-12-07T11:30:35.985Z,4.32
2016-12-07T11:31:36.206Z,4.28
2016-12-07T11:32:36.003Z,4.34
2016-12-07T11:33:36.017Z,4.32
2016-12-07T11:34:36.142Z,4.31
2016-12-07T11:35:36.136Z,4.37
2016-12-07T11:36:36.156Z,4.34
2016-12-07T11:37:36.172Z,4.4
2016-12-07T11:38:36.267Z,4.42
2016-12-07T11:39:36.085Z,4.31
2016-12-07T11:40:36.096Z,4.42
2016-12-07T11:41:36.101Z,4.44
2016-12-07T11:42:36.107Z,4.38
2016-12-07T11:43:36.124Z,4.42
2016-12-07T11:44:36.124Z,4.38
2016-12-07T11:45:36.139Z,4.41
2016-12-07T11:46:36.154Z,4.48
2016-12-07T11:47:36.477Z,4.45
2016-12-07T11:48:36.168Z,4.45
2016-12-07T11:49:36.182Z,4.48
2016-12-07T11:50:36.187Z,4.48
2016-12-07T11:51:36.207Z,4.44
2016-12-07T11:52:36.216Z,4.53
2016-12-07T11:53:36.222Z,4.45
2016-12-07T11:54:36.349Z,4.5
2016-12-07T11:55:36.335Z,4.53
2016-12-07T11:56:36.259Z,4.55
2016-12-07T11:57:36.262Z,4.48
2016-12-07T11:58:36.278Z,4.5
2016-12-07T11:59:36.287Z,4.55
2016-12-07T12:00:36.301Z,4.52
2016-12-07T12:01:36.317Z,4.58
2016-12-07T12:02:36.315Z,4.59
2016-12-07T12:03:36.330Z,4.59
2016-12-07T12:04:36.458Z,4.62
2016-12-07T12:05:36.356Z,4.59
2016-12-07T12:06:36.475Z,4.55
2016-12-07T12:07:36.367Z,4.58
2016-12-07T12:08:36.381Z,4.55
2016-12-07T12:09:36.389Z,4.59
2016-12-07T12:10:36.437Z,4.62
2016-12-07T12:11:36.411Z,4.6
2016-12-07T12:12:36.419Z,4.59
2016-12-07T12:13:36.435Z,4.59
2016-12-07T12:14:36.441Z,4.6
2016-12-07T12:15:36.448Z,4.6
2016-12-07T12:16:36.463Z,4.58
2016-12-07T12:17:36.483Z,4.59
2016-12-07T12:18:36.484Z,4.68
2016-12-07T12:19:36.610Z,4.67
2016-12-07T12:20:36.508Z,4.6
2016-12-07T12:21:36.515Z,4.68
2016-12-07T12:22:36.529Z,4.7
2016-12-07T12:23:36.661Z,4.62
2016-12-07T12:24:36.663Z,4.7
2016-12-07T12:25:36.563Z,4.6
2016-12-07T12:26:36.573Z,4.58
2016-12-07T12:27:36.699Z,4.63
2016-12-07T12:28:36.712Z,4.6
2016-12-07T12:29:36.612Z,4.58
2016-12-07T12:30:36.618Z,4.77
2016-12-07T12:31:36.629Z,4.58
2016-12-07T12:32:36.746Z,4.59
2016-12-07T12:33:36.653Z,4.68
2016-12-07T12:34:36.660Z,4.62
2016-12-07T12:35:36.680Z,4.56
2016-12-07T12:36:36.863Z,4.66
2016-12-07T12:37:36.804Z,4.53
2016-12-07T12:38:36.701Z,4.68
2016-12-07T12:39:36.713Z,4.53
2016-12-07T12:40:36.721Z,4.73
2016-12-07T12:41:36.736Z,4.67
2016-12-07T12:42:36.744Z,4.6
2016-12-07T12:43:36.757Z,4.62
2016-12-07T12:44:36.771Z,4.67
2016-12-07T12:45:36.773Z,4.71
2016-12-07T12:46:36.787Z,4.74
2016-12-07T12:47:36.952Z,4.7
2016-12-07T12:48:36.804Z,4.7
2016-12-07T12:49:36.825Z,4.68
2016-12-07T12:50:36.828Z,4.77
2016-12-07T12:51:36.834Z,4.71
2016-12-07T12:52:36.852Z,4.75
2016-12-07T12:53:36.955Z,4.66
2016-12-07T12:54:36.873Z,4.68
2016-12-07T12:55:36.877Z,4.7
2016-12-07T12:56:36.893Z,4.68
2016-12-07T12:57:36.986Z,4.63
2016-12-07T12:58:36.908Z,4.84
2016-12-07T12:59:36.928Z,4.78
2016-12-07T13:00:36.973Z,4.86
2016-12-07T13:01:36.953Z,4.78
2016-12-07T13:02:36.954Z,4.86
2016-12-07T13:03:37.015Z,4.86
2016-12-07T13:04:36.970Z,4.84
2016-12-07T13:05:36.988Z,4.84
2016-12-07T13:06:36.997Z,4.8
2016-12-07T13:07:37.014Z,4.82
2016-12-07T13:08:37.013Z,4.82
2016-12-07T13:09:37.030Z,4.75
2016-12-07T13:10:37.039Z,4.86
2016-12-07T13:11:37.049Z,4.87
2016-12-07T13:12:37.065Z,4.82
2016-12-07T13:13:37.120Z,4.84
2016-12-07T13:14:37.081Z,4.92
2016-12-07T13:15:37.208Z,4.86
2016-12-07T13:16:37.215Z,4.86
2016-12-07T13:17:37.115Z,4.87
2016-12-07T13:18:37.230Z,4.87
2016-12-07T13:19:37.142Z,4.87
2016-12-07T13:20:37.143Z,4.84
2016-12-07T13:21:37.160Z,4.84
2016-12-07T13:22:37.203Z,4.97